Time;durP1;ratioP1;P1;durP2;ratioP2;P2;SDS_P1;SDS_P2;PMS_P1;PMS_P2;Temp;Humidity;BMP_temperature;BMP_pressure;BME280_temperature;BME280_humidity;BME280_pressure;Samples;Min_cycle;Max_cycle;Signal;HPM_P1;HPM_P2
2023/04/03 03:54:57;;;;;;;4.35;3.30;;;;;;;4.48;92.72;100378.66;5290264;33;33818;-88
2023/04/03 03:58:01;;;;;;;3.83;3.35;;;;;;;4.41;92.34;100376.69;5278159;33;34196;-88
2023/04/03 04:01:06;;;;;;;4.60;3.50;;;;;;;4.40;93.35;100385.66;5290934;33;33410;-87
2023/04/03 04:04:10;;;;;;;4.87;3.70;;;;;;;4.46;96.28;100380.63;5290855;33;33987;-87
2023/04/03 04:07:12;;;;;;;5.15;3.30;;;;;;;4.53;93.62;100376.44;5290887;33;34126;-87
2023/04/03 04:10:16;;;;;;;4.45;3.80;;;;;;;4.52;95.66;100379.22;5278272;33;33908;-87
2023/04/03 04:13:19;;;;;;;4.30;3.50;;;;;;;4.49;95.39;100379.50;5290489;33;33947;-87
2023/04/03 04:16:22;;;;;;;5.37;3.72;;;;;;;4.49;94.87;100384.84;5277949;33;34744;-86
2023/04/03 04:19:25;;;;;;;4.87;3.70;;;;;;;4.40;93.80;100378.50;5293293;33;34016;-85
2023/04/03 04:22:29;;;;;;;4.22;3.42;;;;;;;4.29;95.27;100383.94;5271763;33;34196;-85
2023/04/03 04:25:32;;;;;;;6.25;3.78;;;;;;;4.31;95.03;100380.16;5282405;33;34051;-85
2023/04/03 04:28:35;;;;;;;7.18;3.80;;;;;;;4.18;96.46;100395.56;5295808;33;34155;-85
2023/04/03 04:31:39;;;;;;;7.78;3.60;;;;;;;4.21;96.38;100389.97;5283408;33;33810;-85
2023/04/03 04:34:42;;;;;;;6.85;3.33;;;;;;;4.26;95.56;100406.37;5283048;33;34823;-85
2023/04/03 04:37:45;;;;;;;7.22;3.78;;;;;;;4.15;97.16;100401.16;5272397;33;33729;-85
2023/04/03 04:40:48;;;;;;;6.50;3.78;;;;;;;4.08;95.87;100394.69;5272161;33;35082;-85
2023/04/03 04:43:51;;;;;;;8.23;4.53;;;;;;;3.99;97.15;100399.03;5281903;33;34338;-85
2023/04/03 04:46:55;;;;;;;9.52;4.18;;;;;;;3.93;98.26;100402.22;5282034;33;34210;-85
2023/04/03 04:49:58;;;;;;;5.62;3.58;;;;;;;3.92;97.36;100403.22;5270500;33;34123;-85
2023/04/03 04:53:01;;;;;;;6.35;3.70;;;;;;;3.94;98.08;100411.06;5282654;33;34281;-85
2023/04/03 04:56:04;;;;;;;6.70;3.72;;;;;;;3.98;97.17;100405.34;5265383;33;33478;-85
2023/04/03 04:59:08;;;;;;;7.62;4.10;;;;;;;4.03;97.55;100402.25;5265305;33;34319;-85
2023/04/03 05:02:11;;;;;;;4.50;3.50;;;;;;;3.99;97.25;100411.50;5269154;33;34162;-85
2023/04/03 05:05:15;;;;;;;6.72;4.18;;;;;;;4.07;97.70;100411.66;5269814;33;33975;-86
2023/04/03 05:08:18;;;;;;;5.22;3.87;;;;;;;4.22;96.04;100423.63;5282689;33;34113;-86
2023/04/03 05:11:21;;;;;;;7.25;4.10;;;;;;;4.22;95.13;100415.63;5271919;33;33988;-86
2023/04/03 05:14:27;;;;;;;6.22;4.07;;;;;;;4.19;97.07;100421.25;5275916;33;35117;-85
2023/04/03 05:17:31;;;;;;;4.35;3.67;;;;;;;4.21;95.66;100423.75;5284577;33;34324;-85
2023/04/03 05:20:36;;;;;;;4.65;3.55;;;;;;;4.24;95.25;100424.34;5268376;33;34131;-85
2023/04/03 05:23:40;;;;;;;5.30;4.00;;;;;;;4.26;95.46;100429.53;5269546;33;33763;-85
2023/04/03 05:26:44;;;;;;;7.65;4.30;;;;;;;4.23;96.19;100433.31;5282378;33;34232;-85
2023/04/03 05:29:47;;;;;;;6.55;4.05;;;;;;;4.25;95.82;100430.50;5268096;33;34151;-85
2023/04/03 05:32:51;;;;;;;5.37;3.83;;;;;;;4.31;95.67;100440.63;5268215;33;35226;-85
2023/04/03 05:35:56;;;;;;;4.93;3.40;;;;;;;4.23;94.86;100432.47;5270877;33;34333;-85
2023/04/03 05:38:59;;;;;;;5.72;3.80;;;;;;;4.25;96.02;100425.19;5268333;33;34678;-85
2023/04/03 05:42:04;;;;;;;7.45;4.00;;;;;;;4.28;97.05;100423.09;5277902;33;34212;-85
2023/04/03 05:45:07;;;;;;;6.70;3.70;;;;;;;4.33;95.89;100433.34;5266972;33;34746;-85
2023/04/03 05:48:12;;;;;;;6.80;3.92;;;;;;;4.30;98.62;100429.12;5279887;33;34044;-85
2023/04/03 05:51:18;;;;;;;5.22;3.37;;;;;;;4.17;95.83;100439.19;5267569;33;33660;-85
2023/04/03 05:54:25;;;;;;;5.75;3.90;;;;;;;4.23;97.92;100435.97;5280704;33;34115;-85
2023/04/03 05:57:28;;;;;;;6.28;4.15;;;;;;;4.28;97.18;100435.56;5268087;33;34324;-89
2023/04/03 06:00:32;;;;;;;8.43;4.00;;;;;;;4.26;96.49;100435.69;5250950;33;34085;-89
2023/04/03 06:03:35;;;;;;;6.57;4.10;;;;;;;4.35;96.60;100431.38;5258805;33;33901;-86
2023/04/03 06:06:51;;;;;;;5.60;3.62;;;;;;;4.36;96.11;100434.88;5268098;33;34287;-86
2023/04/03 06:09:55;;;;;;;4.62;3.90;;;;;;;4.40;95.15;100441.63;5280483;33;34378;-85
2023/04/03 06:12:58;;;;;;;6.32;3.47;;;;;;;4.52;94.59;100443.19;5268840;33;33765;-86
2023/04/03 06:16:02;;;;;;;7.37;4.15;;;;;;;4.63;94.59;100439.59;5279800;33;34361;-85
2023/04/03 06:19:06;;;;;;;4.70;3.83;;;;;;;4.74;94.65;100444.81;5267729;33;34441;-85
2023/04/03 06:22:12;;;;;;;5.57;3.65;;;;;;;4.82;92.12;100444.09;5289986;33;34190;-85
2023/04/03 06:25:17;;;;;;;6.30;3.40;;;;;;;4.90;92.68;100452.25;5286585;33;33782;-85
2023/04/03 06:28:20;;;;;;;11.00;3.40;;;;;;;4.96;92.64;100459.69;5276054;33;34271;-85
2023/04/03 06:31:23;;;;;;;5.97;3.80;;;;;;;5.12;92.16;100445.78;5292607;33;33907;-85
2023/04/03 06:34:27;;;;;;;8.55;4.00;;;;;;;5.24;90.91;100452.66;5264591;33;34096;-85
2023/04/03 06:37:30;;;;;;;5.50;3.55;;;;;;;5.38;89.43;100462.06;5272058;33;34422;-85
2023/04/03 06:40:33;;;;;;;5.10;3.42;;;;;;;5.60;89.48;100461.75;5264561;33;33779;-85
2023/04/03 06:43:38;;;;;;;4.68;3.50;;;;;;;5.86;85.18;100461.13;5267367;33;33894;-85
2023/04/03 06:46:42;;;;;;;5.75;3.80;;;;;;;5.85;83.61;100462.09;5259353;33;34145;-85
2023/04/03 06:49:45;;;;;;;3.60;3.20;;;;;;;5.94;83.10;100463.94;5258663;33;34186;-85
2023/04/03 06:52:48;;;;;;;6.10;3.05;;;;;;;6.02;80.86;100461.38;5278702;33;34101;-85
2023/04/03 06:55:51;;;;;;;6.05;3.35;;;;;;;6.09;80.98;100465.16;5262203;33;33761;-85
2023/04/03 06:58:57;;;;;;;3.20;2.95;;;;;;;6.20;80.60;100469.47;5249508;33;33975;-85
2023/04/03 07:02:00;;;;;;;4.65;2.92;;;;;;;6.29;79.40;100473.94;5274456;33;34147;-85
2023/04/03 07:05:03;;;;;;;3.33;2.60;;;;;;;6.37;76.91;100476.69;5248262;33;34097;-85
2023/04/03 07:08:06;;;;;;;4.00;2.90;;;;;;;6.53;79.10;100483.25;5251419;33;34542;-85
2023/04/03 07:11:10;;;;;;;4.53;2.83;;;;;;;6.75;76.97;100490.00;5249111;33;35399;-86
2023/04/03 07:14:13;;;;;;;4.62;2.90;;;;;;;6.93;73.75;100490.91;5266122;33;35273;-85
2023/04/03 07:17:16;;;;;;;3.15;2.53;;;;;;;7.17;72.85;100497.50;5249822;33;34091;-85
2023/04/03 07:20:19;;;;;;;2.75;2.50;;;;;;;7.30;71.96;100495.25;5284246;33;34111;-84
2023/04/03 07:23:22;;;;;;;4.03;2.47;;;;;;;7.38;70.53;100497.16;5275014;33;34880;-84
2023/04/03 07:26:25;;;;;;;3.45;2.65;;;;;;;7.68;70.52;100498.56;5268081;33;34026;-84
2023/04/03 07:29:28;;;;;;;3.00;2.03;;;;;;;7.80;69.56;100494.63;5270130;33;33995;-84
2023/04/03 07:32:31;;;;;;;2.97;2.30;;;;;;;7.96;69.46;100496.59;5275924;33;33980;-84
2023/04/03 07:35:34;;;;;;;3.17;2.72;;;;;;;8.16;66.75;100499.88;5273098;33;34855;-84
2023/04/03 07:38:37;;;;;;;2.42;2.10;;;;;;;8.41;68.55;100500.88;5260946;33;33982;-84
2023/04/03 07:41:40;;;;;;;2.42;2.22;;;;;;;8.50;66.42;100499.09;5276377;33;34029;-84
2023/04/03 07:44:43;;;;;;;2.95;2.62;;;;;;;8.73;65.50;100502.03;5266003;33;33936;-83
2023/04/03 07:47:47;;;;;;;3.90;2.20;;;;;;;9.01;65.36;100506.13;5269658;33;34821;-84
2023/04/03 07:50:51;;;;;;;1.60;1.50;;;;;;;9.14;65.08;100496.75;5269698;33;34854;-84
2023/04/03 07:53:54;;;;;;;2.55;2.20;;;;;;;9.00;61.82;100498.22;5274514;33;35332;-84
2023/04/03 07:56:56;;;;;;;4.12;1.98;;;;;;;9.40;63.04;100499.31;5280718;33;35167;-88
2023/04/03 08:00:03;;;;;;;1.83;1.73;;;;;;;9.29;61.12;100503.16;5262886;33;34461;-89
2023/04/03 08:03:16;;;;;;;2.45;2.00;;;;;;;9.34;61.78;100511.56;5276288;33;34025;-83
2023/04/03 08:06:19;;;;;;;2.70;2.25;;;;;;;9.36;59.90;100514.94;5272568;33;34273;-83
2023/04/03 08:09:39;;;;;;;;;;;;;;;9.38;61.30;100514.75;5252882;33;35070;-84
2023/04/03 08:12:42;;;;;;;4.85;2.20;;;;;;;9.50;62.27;100506.16;5278214;33;33758;-84
2023/04/03 08:15:45;;;;;;;4.78;2.87;;;;;;;9.80;59.86;100511.03;5276770;33;33640;-86
2023/04/03 08:18:48;;;;;;;4.15;2.80;;;;;;;9.93;59.39;100519.44;5261119;33;33859;-84
2023/04/03 08:21:51;;;;;;;2.42;2.22;;;;;;;9.85;59.45;100511.37;5274424;33;33792;-84
2023/04/03 08:24:54;;;;;;;2.47;2.28;;;;;;;10.07;59.04;100510.69;5260730;33;33828;-84
2023/04/03 08:28:02;;;;;;;2.15;1.95;;;;;;;9.72;58.53;100511.91;5261085;33;34024;-84
2023/04/03 08:31:11;;;;;;;2.30;2.10;;;;;;;9.99;59.66;100516.06;5259848;33;35393;-84
2023/04/03 08:34:14;;;;;;;;;;;;;;;10.38;55.90;100526.94;5271875;33;34603;-84
2023/04/03 08:37:17;;;;;;;5.20;1.90;;;;;;;10.76;56.18;100510.12;5273729;33;32528;-84
2023/04/03 08:40:21;;;;;;;4.45;2.20;;;;;;;11.09;52.72;100513.50;5272456;33;33622;-84
2023/04/03 08:43:59;;;;;;;2.08;1.87;;;;;;;10.71;53.05;100517.91;5284131;33;34510;-84
2023/04/03 08:47:20;;;;;;;2.10;1.90;;;;;;;10.40;54.17;100516.81;5280157;33;33921;-84
2023/04/03 08:50:39;;;;;;;2.25;2.05;;;;;;;10.99;53.50;100511.00;5275041;33;32508;-84
2023/04/03 08:53:50;;;;;;;2.75;1.67;;;;;;;11.44;53.13;100519.31;5280495;33;33307;-84
2023/04/03 08:56:54;;;;;;;3.28;2.20;;;;;;;11.56;49.87;100517.88;5282711;33;34197;-84
2023/04/03 09:00:17;;;;;;;1.98;1.77;;;;;;;11.74;48.31;100506.78;5271485;33;33551;-84
2023/04/03 09:03:22;;;;;;;2.08;1.58;;;;;;;11.32;49.96;100510.81;5272486;33;33923;-84
2023/04/03 09:06:32;;;;;;;2.25;2.05;;;;;;;11.62;48.47;100521.72;5272546;33;34121;-84
2023/04/03 09:09:40;;;;;;;2.05;1.85;;;;;;;10.93;49.48;100517.09;5271693;33;34678;-84
2023/04/03 09:12:53;;;;;;;2.72;2.00;;;;;;;10.91;52.33;100519.16;5289577;33;33768;-84
2023/04/03 09:15:56;;;;;;;2.37;1.73;;;;;;;10.71;50.15;100517.91;5274838;33;35147;-84
2023/04/03 09:19:17;;;;;;;1.60;1.50;;;;;;;10.53;49.91;100521.69;5272586;33;34834;-84
2023/04/03 09:22:27;;;;;;;2.00;1.80;;;;;;;10.31;51.04;100517.88;5274234;33;35292;-84
2023/04/03 09:25:35;;;;;;;2.08;1.90;;;;;;;10.55;51.22;100513.41;5275025;33;34080;-84
2023/04/03 09:28:41;;;;;;;2.00;1.75;;;;;;;11.03;50.40;100512.34;5275409;33;35381;-84
2023/04/03 09:32:12;;;;;;;2.15;1.62;;;;;;;11.42;48.97;100521.34;5262910;33;33709;-84
2023/04/03 09:35:30;;;;;;;5.22;1.90;;;;;;;11.69;49.44;100503.78;5274056;33;33598;-84
2023/04/03 09:38:46;;;;;;;2.45;2.15;;;;;;;11.78;47.39;100514.28;5274944;33;33988;-85
2023/04/03 09:42:15;;;;;;;2.20;2.00;;;;;;;11.70;47.55;100511.69;5259516;33;34024;-85
2023/04/03 09:45:24;;;;;;;2.03;1.83;;;;;;;11.37;46.59;100513.78;5273204;33;34496;-84
2023/04/03 09:48:28;;;;;;;1.80;1.70;;;;;;;11.73;46.64;100502.41;5271279;33;33903;-84
2023/04/03 09:51:32;;;;;;;2.00;1.80;;;;;;;12.16;46.41;100502.66;5250442;33;33904;-84
2023/04/03 09:54:38;;;;;;;2.15;1.92;;;;;;;12.55;45.59;100501.53;5257774;33;33953;-84
2023/04/03 09:57:41;;;;;;;1.67;1.52;;;;;;;12.16;45.64;100495.41;5276561;33;342590;-84
2023/04/03 10:00:54;;;;;;;1.52;1.42;;;;;;;12.18;45.54;100506.03;5248872;33;35074;-84
2023/04/03 10:04:16;;;;;;;1.62;1.50;;;;;;;11.65;46.07;100499.78;5273840;33;34283;-83
2023/04/03 10:07:35;;;;;;;9.10;1.98;;;;;;;11.49;47.61;100506.94;5270686;33;34844;-84
2023/04/03 10:10:46;;;;;;;1.92;1.67;;;;;;;10.93;49.81;100503.62;5272426;33;32398;-84
2023/04/03 10:13:55;;;;;;;1.65;1.55;;;;;;;10.88;49.24;100511.41;5267667;33;33714;-84
2023/04/03 10:17:25;;;;;;;1.80;1.70;;;;;;;10.77;48.05;100503.75;5273257;33;33961;-84
2023/04/03 10:20:28;;;;;;;;;;;;;;;10.88;51.90;100504.19;5277334;33;34316;-84
2023/04/03 10:23:48;;;;;;;1.55;1.45;;;;;;;11.24;47.33;100508.19;5290017;33;35523;-87
2023/04/03 10:27:10;;;;;;;1.30;1.20;;;;;;;11.37;48.21;100508.41;5285875;33;35491;-84
2023/04/03 10:30:26;;;;;;;1.70;1.60;;;;;;;11.58;47.04;100507.72;5273657;33;34474;-84
2023/04/03 10:33:45;;;;;;;2.00;1.80;;;;;;;11.23;48.48;100511.87;5274228;33;33616;-85
2023/04/03 10:37:15;;;;;;;1.63;1.47;;;;;;;10.86;49.65;100516.97;5273184;33;33543;-84
2023/04/03 10:40:33;;;;;;;1.25;1.23;;;;;;;10.87;49.53;100517.81;5260320;33;33574;-84
2023/04/03 10:43:38;;;;;;;2.85;1.40;;;;;;;10.89;48.09;100510.41;5259108;33;34730;-84
2023/04/03 10:46:49;;;;;;;2.62;1.40;;;;;;;10.89;48.21;100505.84;5273894;33;32577;-84
2023/04/03 10:50:26;;;;;;;1.50;1.40;;;;;;;10.88;47.85;100503.31;5273801;33;34693;-84
2023/04/03 10:54:07;;;;;;;1.42;1.33;;;;;;;10.86;46.73;100500.00;5271349;33;36057;-88
2023/04/03 10:57:11;;;;;;;1.55;1.45;;;;;;;11.29;46.56;100503.06;5279857;33;33864;-84
2023/04/03 11:00:31;;;;;;;1.50;1.35;;;;;;;11.61;45.43;100495.75;5283842;33;33897;-84
2023/04/03 11:03:49;;;;;;;1.83;1.55;;;;;;;11.66;45.53;100499.56;5282289;33;34026;-83
2023/04/03 11:06:58;;;;;;;1.60;1.50;;;;;;;11.64;45.12;100500.78;5268021;33;33442;-84
2023/04/03 11:10:37;;;;;;;1.30;1.20;;;;;;;11.84;44.86;100501.94;5273417;33;33759;-84
2023/04/03 11:13:57;;;;;;;1.47;1.37;;;;;;;11.93;43.42;100498.16;5279651;33;34008;-84
2023/04/03 11:17:16;;;;;;;2.37;1.20;;;;;;;11.86;42.49;100491.84;5328541;28;34629;-84
2023/04/03 11:20:27;;;;;;;1.20;1.17;;;;;;;11.92;43.86;100493.81;5300459;33;34880;-83
2023/04/03 11:23:34;;;;;;;1.23;1.20;;;;;;;11.71;42.92;100496.34;5305403;33;33774;-84
2023/04/03 11:26:52;;;;;;;1.12;1.10;;;;;;;11.76;43.00;100491.25;5306781;33;33980;-84
2023/04/03 11:29:56;;;;;;;3.83;1.17;;;;;;;11.64;42.71;100484.59;5307221;33;34457;-82
2023/04/03 11:32:59;;;;;;;1.55;1.20;;;;;;;11.70;43.32;100479.34;5305896;33;33942;-83
2023/04/03 11:36:18;;;;;;;1.48;1.05;;;;;;;11.57;44.06;100477.22;5313849;33;33908;-83
2023/04/03 11:39:32;;;;;;;1.92;1.20;;;;;;;11.56;42.45;100480.97;5318800;33;34011;-83
2023/04/03 11:42:42;;;;;;;;;;;;;;;11.57;43.77;100462.91;5311522;33;33506;-83
2023/04/03 11:45:49;;;;;;;1.30;1.20;;;;;;;11.81;44.71;100459.16;5318302;33;35578;-83
2023/04/03 11:48:55;;;;;;;1.55;1.10;;;;;;;11.84;43.91;100463.34;5309740;33;33749;-83
2023/04/03 11:51:58;;;;;;;1.48;1.37;;;;;;;11.67;43.03;100470.75;5311175;33;35199;-83
2023/04/03 11:55:01;;;;;;;1.52;1.42;;;;;;;11.19;43.22;100462.88;5310717;33;34101;-83
2023/04/03 11:58:13;;;;;;;1.77;1.23;;;;;;;11.47;43.49;100462.34;5292065;33;35049;-83
2023/04/03 12:01:43;;;;;;;1.45;1.30;;;;;;;11.32;45.25;100473.09;5307809;33;33855;-83
2023/04/03 12:05:27;;;;;;;1.33;1.23;;;;;;;11.36;44.10;100469.00;5300883;33;33998;-83
2023/04/03 12:08:33;;;;;;;1.23;1.12;;;;;;;11.24;45.58;100476.66;5323238;33;34775;-84
2023/04/03 12:11:37;;;;;;;2.60;1.33;;;;;;;10.92;46.35;100469.66;5320165;33;34946;-83
2023/04/03 12:14:40;;;;;;;3.47;1.50;;;;;;;11.13;47.25;100474.37;5283129;33;34020;-83
2023/04/03 12:17:43;;;;;;;1.75;1.50;;;;;;;11.31;45.92;100469.53;5294788;33;33619;-84
2023/04/03 12:20:56;;;;;;;1.48;1.37;;;;;;;11.06;46.58;100458.09;5304868;33;34527;-83
2023/04/03 12:24:12;;;;;;;1.50;1.40;;;;;;;11.19;46.38;100456.66;5307208;33;34410;-84
2023/04/03 12:27:23;;;;;;;1.80;1.60;;;;;;;11.17;44.94;100462.22;5301001;33;33568;-81
2023/04/03 12:30:30;;;;;;;1.92;1.23;;;;;;;11.25;45.42;100459.47;5306252;33;35294;-82
2023/04/03 12:34:08;;;;;;;1.40;1.30;;;;;;;11.60;44.89;100459.84;5304109;33;34369;-83
2023/04/03 12:37:49;;;;;;;1.12;1.12;;;;;;;11.20;43.69;100451.09;5285031;33;34161;-82
2023/04/03 12:41:38;;;;;;;1.40;1.30;;;;;;;11.01;44.72;100455.09;5305408;33;34008;-82
2023/04/03 12:44:54;;;;;;;2.70;1.23;;;;;;;11.32;46.75;100449.66;5295227;33;35237;-83
2023/04/03 12:47:57;;;;;;;1.90;1.52;;;;;;;11.52;45.81;100452.69;5308380;33;35318;-83
2023/04/03 12:51:00;;;;;;;1.60;1.50;;;;;;;11.66;44.92;100452.91;5271043;33;34714;-83
2023/04/03 12:54:18;;;;;;;1.20;1.20;;;;;;;11.29;44.77;100439.25;5306711;33;34763;-83
2023/04/03 12:57:24;;;;;;;1.40;1.30;;;;;;;11.49;44.68;100444.13;5305959;33;34263;-83
2023/04/03 13:00:34;;;;;;;1.30;1.20;;;;;;;11.34;44.85;100438.69;5306643;33;32273;-83
2023/04/03 13:03:40;;;;;;;1.70;1.60;;;;;;;11.70;44.46;100443.41;5305805;33;33714;-83
2023/04/03 13:06:44;;;;;;;1.20;1.10;;;;;;;11.93;43.85;100435.28;5306842;33;34659;-83
2023/04/03 13:09:56;;;;;;;1.60;1.10;;;;;;;11.55;43.84;100435.28;5311118;33;35478;-83
2023/04/03 13:13:09;;;;;;;2.03;1.40;;;;;;;12.03;42.72;100430.47;5305691;33;34148;-83
2023/04/03 13:16:13;;;;;;;1.50;1.40;;;;;;;12.36;41.21;100432.75;5304825;33;34122;-88
2023/04/03 13:19:17;;;;;;;4.72;1.58;;;;;;;12.61;41.10;100417.09;5282039;33;33918;-87
2023/04/03 13:22:38;;;;;;;1.00;0.98;;;;;;;12.84;41.49;100412.38;5279543;33;33958;-84
2023/04/03 13:25:45;;;;;;;2.58;1.35;;;;;;;12.77;40.19;100419.53;5306937;33;34681;-83
2023/04/03 13:28:50;;;;;;;1.50;1.23;;;;;;;12.75;40.93;100415.34;5304602;33;33968;-83
2023/04/03 13:31:56;;;;;;;2.28;1.20;;;;;;;12.82;43.94;100411.72;5273705;33;33699;-83
2023/04/03 13:35:00;;;;;;;3.67;1.40;;;;;;;13.15;41.26;100408.50;5296509;33;34799;-83
2023/04/03 13:38:20;;;;;;;1.50;1.17;;;;;;;13.35;41.38;100406.00;5291052;33;35191;-84
2023/04/03 13:41:36;;;;;;;2.60;1.08;;;;;;;13.13;40.00;100405.12;5307703;33;33563;-83
2023/04/03 13:44:41;;;;;;;1.20;1.10;;;;;;;13.18;39.30;100409.97;5308096;33;33850;-83
2023/04/03 13:47:46;;;;;;;1.40;1.17;;;;;;;12.91;39.09;100407.84;5279808;33;33434;-84
2023/04/03 13:51:00;;;;;;;2.15;1.40;;;;;;;12.81;40.19;100399.25;5311435;33;33962;-83
2023/04/03 13:54:19;;;;;;;1.42;1.33;;;;;;;13.04;43.37;100400.91;5308583;33;35464;-83
2023/04/03 13:57:22;;;;;;;2.60;1.58;;;;;;;13.31;40.44;100393.91;5308509;33;34312;-83
2023/04/03 14:00:35;;;;;;;1.48;1.35;;;;;;;13.57;39.31;100391.41;5293014;33;34680;-83
2023/04/03 14:03:44;;;;;;;3.47;1.20;;;;;;;13.56;37.93;100388.88;5303472;33;34851;-83
2023/04/03 14:06:48;;;;;;;1.48;1.37;;;;;;;14.50;38.80;100381.03;5302248;33;33457;-83
2023/04/03 14:09:51;;;;;;;1.50;1.40;;;;;;;15.30;35.54;100372.25;5297715;33;33630;-83
2023/04/03 14:12:55;;;;;;;1.25;1.15;;;;;;;15.34;35.16;100377.03;5303920;33;34482;-88
2023/04/03 14:16:00;;;;;;;1.92;1.50;;;;;;;14.78;35.78;100380.13;5290379;33;33623;-86
2023/04/03 14:19:21;;;;;;;1.30;1.17;;;;;;;14.47;34.89;100377.91;5290420;33;34669;-83
2023/04/03 14:22:28;;;;;;;1.27;1.17;;;;;;;13.82;36.69;100375.53;5318923;33;35351;-82
2023/04/03 14:25:32;;;;;;;1.42;1.25;;;;;;;14.04;37.59;100370.88;5317165;33;34131;-82
2023/04/03 14:28:36;;;;;;;1.45;1.35;;;;;;;13.59;37.52;100366.84;5312730;33;35426;-84
2023/04/03 14:31:41;;;;;;;2.17;1.25;;;;;;;13.28;38.47;100369.94;5303389;33;35317;-83
2023/04/03 14:34:45;;;;;;;1.33;1.23;;;;;;;12.94;38.53;100374.19;5306668;33;33891;-82
2023/04/03 14:37:50;;;;;;;1.10;1.00;;;;;;;12.67;37.80;100373.09;5294434;33;33957;-82
2023/04/03 14:40:54;;;;;;;2.47;1.65;;;;;;;12.60;38.14;100377.59;5306318;33;34143;-83
2023/04/03 14:44:00;;;;;;;1.15;1.05;;;;;;;12.35;38.87;100377.94;5305486;33;35445;-82
2023/04/03 14:47:03;;;;;;;1.25;1.15;;;;;;;12.10;38.99;100373.88;5293786;33;34743;-82
2023/04/03 14:50:07;;;;;;;1.33;1.23;;;;;;;12.40;40.81;100375.53;5299655;33;34492;-83
2023/04/03 14:53:12;;;;;;;1.27;1.23;;;;;;;12.20;39.72;100377.13;5304481;33;34363;-83
2023/04/03 14:56:28;;;;;;;1.45;1.35;;;;;;;12.19;42.36;100372.75;5307334;33;34237;-82
2023/04/03 14:59:32;;;;;;;1.30;1.30;;;;;;;11.84;41.02;100377.84;5306757;33;34523;-82
2023/04/03 15:02:37;;;;;;;2.15;1.55;;;;;;;11.66;41.99;100380.09;5306685;33;34708;-83
2023/04/03 15:05:42;;;;;;;2.08;1.40;;;;;;;11.66;42.16;100378.22;5311909;33;34042;-83
2023/04/03 15:08:46;;;;;;;2.87;1.83;;;;;;;11.57;42.18;100382.84;5299512;33;33987;-83
2023/04/03 15:11:51;;;;;;;2.17;1.23;;;;;;;11.21;42.22;100384.56;5312165;33;34246;-82
2023/04/03 15:14:53;;;;;;;1.45;1.35;;;;;;;11.09;42.79;100374.22;5299977;33;33731;-83
2023/04/03 15:18:06;;;;;;;2.03;1.83;;;;;;;11.08;42.97;100374.38;5311305;33;34294;-83
2023/04/03 15:21:09;;;;;;;1.83;1.65;;;;;;;11.09;42.70;100382.31;5312433;33;33994;-83
2023/04/03 15:24:12;;;;;;;1.80;1.60;;;;;;;10.89;43.64;100381.94;5289264;33;33720;-83
2023/04/03 15:27:15;;;;;;;2.00;1.62;;;;;;;10.88;42.69;100380.28;5288233;33;34333;-84
2023/04/03 15:30:19;;;;;;;2.12;1.73;;;;;;;10.74;43.50;100391.81;5299925;33;33774;-84
2023/04/03 15:33:22;;;;;;;13.75;3.37;;;;;;;10.37;44.37;100381.78;5287371;33;34047;-84
2023/04/03 15:36:25;;;;;;;2.45;2.08;;;;;;;10.23;45.34;100386.84;5299091;33;34396;-83
2023/04/03 15:39:36;;;;;;;2.33;2.08;;;;;;;9.97;45.14;100386.28;5291103;33;34681;-87
2023/04/03 15:42:40;;;;;;;3.50;2.15;;;;;;;9.77;44.28;100381.34;5314243;33;34482;-88
2023/04/03 15:45:44;;;;;;;2.65;2.10;;;;;;;9.54;45.98;100386.59;5319151;33;34014;-87
2023/04/03 15:48:47;;;;;;;2.75;2.50;;;;;;;9.39;46.77;100391.00;5294850;33;34258;-84
2023/04/03 15:51:50;;;;;;;2.72;2.20;;;;;;;9.31;45.91;100385.63;5314286;33;33927;-84
2023/04/03 15:54:53;;;;;;;3.20;2.35;;;;;;;9.20;46.58;100389.47;5299230;33;33977;-84
